Time;durP1;ratioP1;P1;durP2;ratioP2;P2;SDS_P1;SDS_P2;PMS_P1;PMS_P2;Temp;Humidity;BMP_temperature;BMP_pressure;BME280_temperature;BME280_humidity;BME280_pressure;Samples;Min_cycle;Max_cycle;Signal;HPM_P1;HPM_P2
2022/11/28 13:55:03;;;;;;;20.33;15.23;;;;;;;15.30;46.82;96635.50;5108625;27;20388;-26
2022/11/28 13:57:37;;;;;;;21.10;15.02;;;;;;;15.70;45.66;96637.41;5084152;28;20033;-26
2022/11/28 14:00:05;;;;;;;19.05;13.25;;;;;;;16.02;44.79;96628.59;5068826;28;20032;-27
2022/11/28 14:02:40;;;;;;;19.77;13.07;;;;;;;16.12;44.48;96632.84;5081426;28;20460;-26
2022/11/28 14:05:24;;;;;;;17.35;12.05;;;;;;;16.29;43.96;96638.75;5088657;28;20161;-26
2022/11/28 14:07:49;;;;;;;18.80;13.20;;;;;;;16.33;43.68;96641.31;5088411;28;20483;-26
2022/11/28 14:10:24;;;;;;;19.70;12.52;;;;;;;16.38;43.55;96632.50;5088877;28;20047;-26
2022/11/28 14:13:11;;;;;;;15.02;10.90;;;;;;;16.45;43.21;96635.66;5087908;28;20111;-27
2022/11/28 14:29:39;;;;;;;18.38;11.02;;;;;;;16.50;43.02;96628.81;5067719;28;20427;-26
2022/11/28 14:32:05;;;;;;;19.48;10.68;;;;;;;16.46;43.15;96633.69;5064980;28;20103;-28
2022/11/28 14:34:35;;;;;;;17.33;9.85;;;;;;;16.53;42.97;96625.91;5068012;28;20180;-26
2022/11/28 14:37:19;;;;;;;14.48;9.13;;;;;;;16.49;43.16;96619.06;5067654;28;20388;-28
2022/11/28 14:39:46;;;;;;;14.13;8.80;;;;;;;16.52;42.97;96620.91;5067685;28;20089;-27
2022/11/28 14:42:11;;;;;;;13.15;8.55;;;;;;;16.56;42.73;96621.50;5066625;28;20480;-26
2022/11/28 14:44:46;;;;;;;13.45;8.43;;;;;;;16.53;42.81;96617.72;5067493;28;20032;-27
2022/11/28 14:47:33;;;;;;;11.90;7.78;;;;;;;16.53;43.01;96614.97;5067616;28;20079;-26
2022/11/28 14:50:04;;;;;;;14.07;8.45;;;;;;;16.50;42.86;96610.41;5085632;28;20090;-27
2022/11/28 14:52:34;;;;;;;12.25;8.13;;;;;;;16.52;42.92;96618.16;5087831;28;20020;-27
2022/11/28 14:55:09;;;;;;;11.35;7.15;;;;;;;16.55;42.85;96620.00;5087603;28;20124;-26
2022/11/28 14:57:39;;;;;;;12.52;8.00;;;;;;;16.48;43.17;96621.06;5087976;28;20375;-27
2022/11/28 15:00:14;;;;;;;10.27;7.15;;;;;;;16.52;43.03;96618.16;5087692;28;20028;-26
2022/11/28 15:02:54;;;;;;;11.05;7.10;;;;;;;16.50;43.10;96626.84;5087755;28;20031;-27
2022/11/28 15:05:58;;;;;;;12.43;7.25;;;;;;;16.48;42.99;96632.00;5080152;28;20024;-26
2022/11/28 15:08:46;;;;;;;12.55;7.20;;;;;;;16.51;43.10;96630.34;5073603;28;20036;-26
2022/11/28 15:11:21;;;;;;;9.65;6.57;;;;;;;16.49;42.97;96632.78;5073917;28;20028;-26
2022/11/28 15:14:14;;;;;;;14.02;7.18;;;;;;;16.52;43.17;96631.84;5074107;28;20535;-29
2022/11/28 15:16:45;;;;;;;13.07;7.07;;;;;;;16.50;43.28;96639.75;5074081;28;20111;-26
2022/11/28 15:19:14;;;;;;;9.45;6.88;;;;;;;16.45;43.17;96643.09;5073823;28;20264;-26
2022/11/28 15:21:48;;;;;;;9.82;6.45;;;;;;;16.49;43.20;96644.47;5072023;28;20029;-26
2022/11/28 15:24:22;;;;;;;10.60;7.30;;;;;;;16.55;43.06;96641.91;5073886;28;20090;-26
2022/11/28 15:26:48;;;;;;;11.98;7.03;;;;;;;16.50;43.17;96643.25;5073875;28;20032;-26
2022/11/28 15:29:27;;;;;;;8.88;6.22;;;;;;;16.51;43.21;96639.31;5073764;28;20033;-26
2022/11/28 15:31:55;;;;;;;10.48;6.68;;;;;;;16.54;43.15;96629.41;5071186;28;20103;-27
2022/11/28 15:34:35;;;;;;;10.32;6.47;;;;;;;16.56;43.17;96639.91;5073382;28;20453;-27
2022/11/28 15:37:15;;;;;;;10.50;6.72;;;;;;;16.49;43.19;96649.94;5073609;28;20025;-26
2022/11/28 15:39:43;;;;;;;10.02;6.95;;;;;;;16.47;43.29;96641.44;5073733;28;20029;-26
2022/11/28 15:42:21;;;;;;;10.52;6.80;;;;;;;16.54;43.15;96643.09;5073652;28;20020;-26
2022/11/28 15:44:53;;;;;;;10.25;7.13;;;;;;;16.52;43.18;96640.81;5073250;28;20020;-29
2022/11/28 15:47:20;;;;;;;9.23;6.40;;;;;;;16.53;43.17;96636.13;5072110;28;20034;-27
2022/11/28 15:49:57;;;;;;;10.05;6.35;;;;;;;16.53;43.37;96638.84;5073426;28;20028;-25
2022/11/28 15:52:22;;;;;;;11.10;6.45;;;;;;;16.55;43.17;96638.41;5073364;28;20024;-26
2022/11/28 15:54:51;;;;;;;10.60;6.75;;;;;;;16.51;43.42;96636.56;5072914;28;20106;-26
2022/11/28 15:57:27;;;;;;;9.32;6.18;;;;;;;16.51;43.51;96628.34;5072727;28;20036;-26
2022/11/28 15:59:53;;;;;;;9.38;6.45;;;;;;;16.54;43.30;96623.94;5073151;28;20032;-27
2022/11/28 16:02:26;;;;;;;7.95;5.72;;;;;;;16.50;43.63;96628.81;5069030;28;20047;-26
2022/11/28 16:04:58;;;;;;;10.05;6.22;;;;;;;16.50;43.62;96626.06;5073714;28;20021;-27
2022/11/28 16:07:24;;;;;;;10.13;6.20;;;;;;;16.54;43.44;96621.22;5074306;28;20094;-26
2022/11/28 16:09:57;;;;;;;7.85;6.28;;;;;;;16.54;43.44;96618.47;5074463;28;20453;-26
2022/11/28 16:12:23;;;;;;;10.02;6.57;;;;;;;16.53;43.46;96619.69;5074954;28;20460;-27
2022/11/28 16:14:52;;;;;;;9.52;6.65;;;;;;;16.49;43.64;96610.88;5074911;28;20032;-26
2022/11/28 16:17:21;;;;;;;12.38;8.18;;;;;;;16.50;43.55;96606.91;5074099;28;20369;-27
2022/11/28 16:19:51;;;;;;;14.60;8.55;;;;;;;16.52;43.46;96604.47;5075072;28;20064;-26
2022/11/28 16:22:18;;;;;;;14.30;8.70;;;;;;;16.51;43.44;96611.94;5074634;28;20392;-27
2022/11/28 16:24:55;;;;;;;15.73;8.70;;;;;;;16.57;43.50;96614.06;5074606;28;20358;-27
2022/11/28 16:27:40;;;;;;;15.82;9.15;;;;;;;16.48;43.53;96599.16;5074667;28;20035;-26
2022/11/28 16:30:24;;;;;;;14.52;8.57;;;;;;;16.50;43.51;96599.47;5074740;28;20024;-26
2022/11/28 16:32:52;;;;;;;15.95;8.82;;;;;;;16.47;43.73;96597.63;5074343;28;20032;-26
2022/11/28 16:35:31;;;;;;;12.10;8.10;;;;;;;16.52;43.52;96596.25;5074516;28;20468;-27
2022/11/28 16:38:12;;;;;;;15.68;8.60;;;;;;;16.52;43.62;96599.00;5074122;28;20024;-26
2022/11/28 16:40:38;;;;;;;14.48;8.48;;;;;;;16.46;43.80;96593.38;5074453;28;20024;-26
2022/11/28 16:43:05;;;;;;;12.40;8.70;;;;;;;16.52;43.64;96590.78;5073293;28;20024;-26
2022/11/28 16:45:32;;;;;;;14.02;9.43;;;;;;;16.55;43.51;96595.34;5074228;28;20031;-26
2022/11/28 16:48:05;;;;;;;13.02;8.60;;;;;;;16.51;43.58;96586.53;5074185;28;20028;-26
2022/11/28 16:50:31;;;;;;;14.75;8.82;;;;;;;16.55;43.70;96586.38;5074177;28;20563;-26
2022/11/28 16:52:58;;;;;;;12.73;8.50;;;;;;;16.51;43.71;96586.53;5073665;28;20079;-26
2022/11/28 16:55:32;;;;;;;13.95;8.90;;;;;;;16.56;43.50;96591.38;5072833;28;20105;-26
2022/11/28 16:58:10;;;;;;;13.90;8.52;;;;;;;16.59;43.47;96581.47;5074190;28;20035;-26
2022/11/28 17:00:37;;;;;;;10.95;8.52;;;;;;;16.57;43.65;96586.69;5073826;28;20027;-27
2022/11/28 17:03:04;;;;;;;15.88;9.68;;;;;;;16.57;43.49;96578.47;5072675;28;20384;-27
2022/11/28 17:05:30;;;;;;;14.52;9.30;;;;;;;16.54;43.68;96577.41;5073879;28;20099;-26
2022/11/28 17:07:56;;;;;;;12.73;9.25;;;;;;;16.49;43.76;96570.56;5073726;28;20511;-26
2022/11/28 17:10:23;;;;;;;12.50;9.35;;;;;;;16.55;43.56;96578.16;5073909;28;20108;-26
2022/11/28 17:12:49;;;;;;;16.00;9.70;;;;;;;16.57;43.55;96570.25;5073735;28;20020;-26
2022/11/28 17:15:18;;;;;;;13.65;9.18;;;;;;;16.57;43.74;96568.25;5073832;28;20028;-26
2022/11/28 17:17:44;;;;;;;13.32;8.63;;;;;;;16.55;43.74;96567.22;5058785;28;20075;-26
2022/11/28 17:20:13;;;;;;;14.02;8.63;;;;;;;16.54;43.63;96571.94;5053741;28;20469;-26
2022/11/28 17:22:46;;;;;;;13.70;8.32;;;;;;;16.56;43.66;96572.22;5066704;28;20476;-26
2022/11/28 17:25:20;;;;;;;12.60;9.10;;;;;;;16.58;43.72;96566.25;5073811;28;20496;-26
2022/11/28 17:27:49;;;;;;;12.18;8.93;;;;;;;16.51;43.96;96562.66;5073114;28;20040;-26
2022/11/28 17:30:17;;;;;;;13.18;8.68;;;;;;;16.55;43.61;96562.50;5073683;28;20555;-26
2022/11/28 17:32:42;;;;;;;12.40;8.00;;;;;;;16.55;43.93;96572.69;5072090;28;20036;-26
2022/11/28 17:35:16;;;;;;;10.80;7.75;;;;;;;16.57;43.77;96565.50;5073540;28;20020;-26
2022/11/28 17:37:42;;;;;;;11.27;7.60;;;;;;;16.55;43.67;96570.72;5073639;28;20127;-27
2022/11/28 17:42:51;;;;;;;9.40;7.07;;;;;;;16.60;43.58;96567.31;5073478;28;20495;-27
2022/11/28 17:45:20;;;;;;;11.07;7.07;;;;;;;16.51;43.92;96567.38;5073441;28;20029;-26
2022/11/28 17:47:45;;;;;;;9.23;6.53;;;;;;;16.52;43.78;96563.41;5073351;28;20452;-26
2022/11/28 17:50:11;;;;;;;10.70;6.75;;;;;;;16.52;43.88;96563.41;5073256;28;20024;-26
2022/11/28 17:52:36;;;;;;;10.02;7.38;;;;;;;16.50;44.01;96560.38;5073262;28;20020;-26
2022/11/28 17:55:02;;;;;;;10.70;7.30;;;;;;;16.49;43.94;96558.84;5073048;28;20045;-26
2022/11/28 17:57:29;;;;;;;10.40;7.22;;;;;;;16.51;43.98;96561.91;5072990;28;20483;-27
2022/11/28 17:59:55;;;;;;;8.95;6.57;;;;;;;16.53;43.89;96564.94;5073309;28;20048;-26
2022/11/28 18:02:20;;;;;;;9.40;7.35;;;;;;;16.49;44.00;96561.59;5070931;28;20491;-26
2022/11/28 18:04:46;;;;;;;10.68;7.30;;;;;;;16.51;43.94;96561.91;5070980;28;20126;-26
2022/11/28 18:07:12;;;;;;;11.30;7.05;;;;;;;16.49;44.10;96569.81;5072344;28;20409;-27
2022/11/28 18:09:37;;;;;;;8.43;7.10;;;;;;;16.52;44.11;96558.69;5072721;28;20484;-26
2022/11/28 18:12:03;;;;;;;9.32;7.47;;;;;;;16.53;43.97;96559.47;5073071;28;20032;-26
2022/11/28 18:14:29;;;;;;;13.05;7.70;;;;;;;16.48;44.04;96562.81;5073028;28;20413;-27
2022/11/28 18:16:54;;;;;;;11.57;7.88;;;;;;;16.55;44.01;96561.72;5073031;28;20024;-26
2022/11/28 18:19:20;;;;;;;9.93;7.30;;;;;;;16.55;43.88;96565.22;5073082;28;20027;-26
2022/11/28 18:21:45;;;;;;;12.38;7.93;;;;;;;16.55;44.01;96567.97;5073160;28;20040;-26
2022/11/28 18:24:10;;;;;;;9.88;8.07;;;;;;;16.53;43.93;96568.44;5072768;28;20017;-27
2022/11/28 18:26:36;;;;;;;11.30;7.70;;;;;;;16.54;44.00;96558.22;5071900;28;20090;-26
2022/11/28 18:29:02;;;;;;;10.10;6.85;;;;;;;16.56;43.88;96558.53;5073048;28;20027;-26
2022/11/28 18:31:29;;;;;;;11.73;6.75;;;;;;;14.97;50.23;96564.22;5072878;28;20056;-26
2022/11/28 18:33:58;;;;;;;9.45;6.78;;;;;;;15.80;47.77;96556.91;5072976;28;20025;-26
2022/11/28 18:36:26;;;;;;;8.57;5.85;;;;;;;16.18;46.40;96556.38;5073022;28;20438;-26
2022/11/28 18:39:03;;;;;;;9.95;6.82;;;;;;;16.46;45.53;96557.78;5072943;28;20116;-26
2022/11/28 18:41:28;;;;;;;9.07;6.93;;;;;;;16.55;45.32;96548.81;5076022;28;20033;-26
2022/11/28 18:43:56;;;;;;;11.82;7.35;;;;;;;16.56;45.29;96553.06;5076260;28;20061;-26
2022/11/28 18:46:22;;;;;;;11.60;6.60;;;;;;;16.55;45.50;96561.72;5076384;28;20016;-26
2022/11/28 18:48:48;;;;;;;10.50;6.82;;;;;;;16.54;45.37;96560.97;5073684;28;20031;-26
2022/11/28 18:51:16;;;;;;;10.35;6.50;;;;;;;16.55;45.26;96559.75;5074441;28;20037;-26
2022/11/28 18:53:42;;;;;;;11.63;6.40;;;;;;;16.52;45.40;96552.47;5074204;28;20053;-26
2022/11/28 18:56:09;;;;;;;9.73;6.38;;;;;;;16.60;45.12;96547.41;5074565;28;20046;-26
2022/11/28 18:58:36;;;;;;;9.23;6.30;;;;;;;16.64;45.22;96548.03;5074537;28;20036;-26
2022/11/28 19:01:12;;;;;;;10.65;6.40;;;;;;;16.68;45.11;96545.88;5072465;28;20036;-26
2022/11/28 19:03:38;;;;;;;11.05;6.10;;;;;;;16.68;44.88;96543.91;5074373;28;20016;-26
2022/11/28 19:06:09;;;;;;;8.85;6.18;;;;;;;16.66;44.91;96546.34;5067906;28;20032;-26
2022/11/28 19:08:35;;;;;;;8.88;5.95;;;;;;;16.64;45.12;96543.31;5070941;28;20024;-26
2022/11/28 19:11:10;;;;;;;8.18;5.75;;;;;;;16.73;44.80;96537.78;5060569;28;20025;-26
2022/11/28 19:13:39;;;;;;;8.75;6.10;;;;;;;16.70;45.04;96535.97;5054003;28;20025;-26
2022/11/28 19:16:06;;;;;;;8.82;5.90;;;;;;;16.68;44.97;96537.69;5054904;28;20047;-26
2022/11/28 19:18:32;;;;;;;9.43;5.93;;;;;;;16.71;45.00;96539.47;5073672;28;20086;-26
2022/11/28 19:20:58;;;;;;;7.45;5.65;;;;;;;16.74;45.12;96550.25;5073941;28;20025;-26
2022/11/28 19:23:24;;;;;;;10.13;5.53;;;;;;;16.76;44.91;96538.84;5073553;28;20024;-26
2022/11/28 19:25:49;;;;;;;8.43;5.60;;;;;;;16.76;44.76;96545.09;5073979;28;20469;-26
2022/11/28 19:28:15;;;;;;;11.73;6.97;;;;;;;16.74;44.79;96554.97;5073962;28;20028;-27
2022/11/28 19:30:40;;;;;;;8.15;6.22;;;;;;;16.82;44.67;96554.16;5073805;28;20032;-26
2022/11/28 19:33:06;;;;;;;9.73;6.68;;;;;;;16.77;44.63;96543.84;5073574;28;20025;-26
2022/11/28 19:35:34;;;;;;;9.20;6.97;;;;;;;16.80;44.69;96558.63;5073135;28;20028;-26
2022/11/28 19:38:00;;;;;;;9.57;5.97;;;;;;;16.84;44.71;96553.69;5073667;28;20032;-26
2022/11/28 19:40:25;;;;;;;7.85;5.82;;;;;;;16.82;44.52;96545.94;5073605;28;20078;-26
2022/11/28 19:42:51;;;;;;;7.07;5.68;;;;;;;16.81;44.81;96541.69;5073748;28;20059;-26
2022/11/28 19:45:18;;;;;;;7.75;5.82;;;;;;;16.77;44.47;96540.38;5073687;28;20411;-26
2022/11/28 19:47:47;;;;;;;8.77;6.18;;;;;;;16.85;44.62;96549.75;5071919;28;20021;-26
2022/11/28 19:50:12;;;;;;;9.13;6.07;;;;;;;16.82;44.68;96536.97;5073480;28;20468;-26
2022/11/28 19:52:38;;;;;;;8.93;5.85;;;;;;;16.87;44.56;96541.81;5073172;28;20035;-26
2022/11/28 19:55:03;;;;;;;7.93;5.60;;;;;;;16.90;44.54;96542.88;5072938;28;20396;-26
2022/11/28 19:57:29;;;;;;;7.07;5.35;;;;;;;16.85;44.60;96541.53;5073236;28;20202;-26
2022/11/28 19:59:54;;;;;;;9.85;5.68;;;;;;;16.92;44.37;96540.44;5072832;28;20434;-26
2022/11/28 20:02:21;;;;;;;9.25;6.05;;;;;;;16.90;44.44;96538.16;5071657;28;20778;-26
2022/11/28 20:04:47;;;;;;;8.23;5.82;;;;;;;16.86;44.44;96543.81;5073115;28;20081;-26
2022/11/28 20:07:12;;;;;;;8.50;6.15;;;;;;;16.91;44.35;96538.94;5073052;28;20036;-26
2022/11/28 20:09:38;;;;;;;8.15;5.80;;;;;;;16.95;44.26;96544.97;5072926;28;20024;-26
2022/11/28 20:12:03;;;;;;;10.07;5.70;;;;;;;16.85;44.65;96539.56;5072725;28;20024;-26
2022/11/28 20:14:31;;;;;;;7.43;5.45;;;;;;;16.87;44.48;96539.84;5072856;28;20035;-26
2022/11/28 20:16:58;;;;;;;7.47;5.30;;;;;;;16.93;44.55;96539.22;5072877;28;20104;-26
2022/11/28 20:19:24;;;;;;;7.93;5.68;;;;;;;16.94;44.34;96533.25;5072906;28;20032;-26
2022/11/28 20:21:49;;;;;;;7.43;5.55;;;;;;;16.94;44.58;96543.47;5072837;28;20089;-26
2022/11/28 20:24:15;;;;;;;7.30;5.57;;;;;;;16.91;44.62;96539.69;5072450;28;20090;-26
2022/11/28 20:26:42;;;;;;;7.88;5.57;;;;;;;16.87;44.71;96545.31;5072640;28;20040;-26
2022/11/28 20:29:12;;;;;;;5.97;4.97;;;;;;;16.96;44.65;96546.50;5072591;28;20393;-26
2022/11/28 20:31:44;;;;;;;6.75;5.47;;;;;;;16.95;44.54;96545.72;5072420;28;20028;-26
2022/11/28 20:34:10;;;;;;;7.60;5.68;;;;;;;16.93;44.95;96545.47;5072385;28;20028;-26
2022/11/28 20:36:35;;;;;;;8.35;5.85;;;;;;;16.98;44.59;96544.81;5072084;28;20040;-26
2022/11/28 20:39:02;;;;;;;10.07;6.20;;;;;;;16.88;44.81;96546.84;5072551;28;20016;-26
2022/11/28 20:41:28;;;;;;;9.43;5.82;;;;;;;16.86;45.02;96537.56;5072522;28;20024;-26
2022/11/28 20:43:54;;;;;;;7.15;5.15;;;;;;;16.92;44.92;96535.72;5072397;28;20488;-26
2022/11/28 20:46:32;;;;;;;6.88;5.63;;;;;;;16.90;44.99;96546.38;5072393;28;20035;-26
2022/11/28 20:49:00;;;;;;;8.50;5.60;;;;;;;16.94;45.00;96551.69;5071771;28;20032;-26
2022/11/28 20:51:27;;;;;;;8.90;5.88;;;;;;;16.95;44.88;96548.47;5072138;28;20028;-26
2022/11/28 20:53:54;;;;;;;7.85;5.15;;;;;;;16.95;44.92;96556.69;5071957;28;20051;-26
2022/11/28 20:56:22;;;;;;;6.55;5.10;;;;;;;16.88;45.19;96549.59;5072078;28;20032;-26
2022/11/28 20:58:48;;;;;;;8.98;5.40;;;;;;;16.91;45.07;96545.16;5071735;28;20032;-26
2022/11/28 21:01:21;;;;;;;6.97;5.82;;;;;;;16.98;45.22;96544.03;5070201;28;20032;-26
2022/11/28 21:03:47;;;;;;;7.65;5.20;;;;;;;16.90;45.28;96545.63;5071628;28;20017;-27
2022/11/28 21:06:13;;;;;;;6.68;4.75;;;;;;;16.85;45.35;96550.50;5071653;28;20039;-27
2022/11/28 21:08:39;;;;;;;6.43;4.75;;;;;;;16.93;45.27;96555.66;5070388;28;20024;-26
2022/11/28 21:11:06;;;;;;;6.50;4.63;;;;;;;16.91;45.42;96553.38;5071686;28;20055;-26
2022/11/28 21:13:31;;;;;;;6.20;4.50;;;;;;;16.90;45.42;96560.06;5071813;28;20392;-26
2022/11/28 21:16:02;;;;;;;6.13;4.80;;;;;;;16.89;45.30;96553.09;5071841;28;20036;-26
2022/11/28 21:18:28;;;;;;;8.43;5.60;;;;;;;16.92;45.53;96565.84;5059375;28;20032;-26
2022/11/28 21:20:53;;;;;;;6.60;4.80;;;;;;;16.90;45.54;96564.81;5051692;28;20031;-26
2022/11/28 21:23:18;;;;;;;7.28;4.88;;;;;;;16.92;45.49;96567.84;5051356;28;20487;-26
2022/11/28 21:25:44;;;;;;;6.88;4.30;;;;;;;16.97;45.38;96564.44;5051661;28;20472;-27
2022/11/28 21:28:11;;;;;;;7.32;5.15;;;;;;;16.95;45.47;96572.38;5051772;28;20025;-26
2022/11/28 21:30:45;;;;;;;5.90;4.78;;;;;;;17.03;45.30;96562.59;5051658;28;20032;-26
2022/11/28 21:33:11;;;;;;;5.93;3.85;;;;;;;16.97;45.67;96558.97;5051737;28;20488;-26
2022/11/28 21:35:38;;;;;;;5.20;4.40;;;;;;;17.03;45.25;96557.88;5051926;28;20067;-26
2022/11/28 21:38:04;;;;;;;5.22;3.88;;;;;;;17.00;45.51;96563.53;5050045;28;20044;-26
2022/11/28 21:40:30;;;;;;;6.20;4.20;;;;;;;16.93;45.68;96561.13;5051331;28;20031;-26
2022/11/28 21:42:56;;;;;;;6.43;4.32;;;;;;;16.94;45.72;96562.66;5051393;28;20055;-26
2022/11/28 21:45:22;;;;;;;6.70;4.10;;;;;;;16.97;45.66;96569.91;5051445;28;20655;-26
2022/11/28 21:47:48;;;;;;;6.28;3.92;;;;;;;16.92;45.82;96567.84;5051122;28;20474;-26
2022/11/28 21:50:13;;;;;;;5.13;3.60;;;;;;;16.91;45.81;96564.34;5051327;28;20128;-26
2022/11/28 21:52:39;;;;;;;5.95;4.00;;;;;;;16.95;45.83;96570.38;5051397;28;20021;-26
2022/11/28 21:55:05;;;;;;;4.78;3.33;;;;;;;16.99;45.96;96567.47;5051240;28;20373;-26
2022/11/28 21:57:30;;;;;;;4.57;3.30;;;;;;;17.03;45.62;96562.59;5051326;28;20638;-26
2022/11/28 21:59:55;;;;;;;4.35;3.47;;;;;;;16.93;45.92;96561.13;5051005;28;20032;-26
2022/11/28 22:02:21;;;;;;;4.90;3.42;;;;;;;16.98;45.83;96568.69;5049441;28;20021;-26
2022/11/28 22:04:46;;;;;;;5.10;3.13;;;;;;;16.96;45.96;96560.94;5051318;28;20035;-26
2022/11/28 22:07:12;;;;;;;3.80;3.20;;;;;;;16.98;45.98;96563.97;5051153;28;20029;-26
2022/11/28 22:09:40;;;;;;;4.50;3.20;;;;;;;16.92;46.10;96565.09;5049509;28;20021;-26
